createdAt,value
2019-05-01T00:04:41.163Z,71.62
2019-05-01T00:10:37.555Z,71.01
2019-05-01T00:13:24.407Z,71.38
2019-05-01T00:16:11.321Z,71.11
2019-05-01T00:18:58.108Z,71.01
2019-05-01T00:21:52.045Z,71.09
2019-05-01T00:24:38.527Z,71.14
2019-05-01T00:27:24.999Z,71.09
2019-05-01T00:30:12.587Z,70.75
2019-05-01T00:32:59.972Z,71.17
2019-05-01T00:35:47.574Z,71.05
2019-05-01T00:38:38.293Z,71.54
2019-05-01T00:41:25.545Z,71.57
2019-05-01T00:44:12.423Z,71.66
2019-05-01T00:46:59.609Z,72.71
2019-05-01T00:49:46.158Z,71.40
2019-05-01T00:52:32.774Z,73.08
2019-05-01T00:58:55.306Z,73.65
2019-05-01T01:02:00.592Z,74.08
2019-05-01T01:04:47.558Z,73.90
2019-05-01T01:07:48.352Z,73.80
2019-05-01T01:10:34.899Z,74.37
2019-05-01T01:13:21.375Z,74.29
2019-05-01T01:16:08.200Z,74.71
2019-05-01T01:19:09.545Z,73.14
2019-05-01T01:21:56.330Z,74.71
2019-05-01T01:24:50.313Z,75.22
2019-05-01T01:27:37.819Z,75.05
2019-05-01T01:30:24.720Z,74.87
2019-05-01T01:33:11.404Z,75.20
2019-05-01T01:35:58.668Z,75.19
2019-05-01T01:38:45.248Z,75.28
2019-05-01T01:41:32.059Z,75.37
2019-05-01T01:44:36.798Z,75.29
2019-05-01T01:47:23.585Z,75.07
2019-05-01T01:50:12.780Z,74.89
2019-05-01T01:52:59.452Z,75.03
2019-05-01T01:55:46.135Z,72.88
2019-05-01T01:58:32.594Z,74.04
2019-05-01T02:01:31.854Z,72.21
2019-05-01T02:04:18.716Z,73.49
2019-05-01T02:07:05.622Z,73.79
2019-05-01T02:09:52.312Z,74.04
2019-05-01T02:12:39.122Z,74.12
2019-05-01T02:18:31.457Z,74.36
2019-05-01T02:21:18.874Z,74.48
2019-05-01T02:24:05.897Z,74.52
2019-05-01T02:26:52.419Z,72.39
2019-05-01T02:29:44.843Z,71.37
2019-05-01T02:32:31.853Z,73.00
2019-05-01T02:35:18.557Z,73.46
2019-05-01T02:38:04.959Z,73.53
2019-05-01T02:40:54.204Z,73.47
2019-05-01T02:43:47.818Z,73.29
2019-05-01T02:46:35.106Z,73.54
2019-05-01T02:49:34.385Z,73.57
2019-05-01T02:52:20.905Z,73.67
2019-05-01T02:55:07.605Z,74.01
2019-05-01T02:57:54.854Z,74.45
2019-05-01T03:00:41.747Z,72.95
2019-05-01T03:03:28.861Z,75.13
2019-05-01T03:06:29.761Z,75.85
2019-05-01T03:09:16.904Z,76.65
2019-05-01T03:12:03.811Z,77.20
2019-05-01T03:14:52.341Z,77.64
2019-05-01T03:17:48.889Z,78.14
2019-05-01T03:20:38.770Z,76.69
2019-05-01T03:23:25.304Z,78.42
2019-05-01T03:26:12.497Z,77.16
2019-05-01T03:28:59.094Z,78.43
2019-05-01T03:32:13.002Z,78.99
2019-05-01T03:34:32.829Z,79.31
2019-05-01T03:37:19.954Z,79.38
2019-05-01T03:40:07.042Z,79.38
2019-05-01T03:42:53.656Z,79.38
2019-05-01T03:45:40.471Z,77.65
2019-05-01T03:48:27.675Z,78.28
2019-05-01T03:51:14.871Z,78.50
2019-05-01T03:54:01.752Z,76.85
2019-05-01T03:56:48.792Z,77.79
2019-05-01T03:59:35.824Z,78.01
2019-05-01T04:02:37.385Z,78.17
2019-05-01T04:05:24.131Z,78.24
2019-05-01T04:08:17.617Z,78.37
2019-05-01T04:11:07.012Z,78.47
2019-05-01T04:13:53.821Z,78.28
2019-05-01T04:16:40.325Z,76.24
2019-05-01T04:19:34.723Z,75.15
2019-05-01T04:22:21.816Z,74.35
2019-05-01T04:25:08.523Z,76.12
2019-05-01T04:27:58.525Z,76.86
2019-05-01T04:30:42.092Z,77.08
2019-05-01T04:33:29.282Z,77.28
2019-05-01T04:36:29.062Z,75.09
2019-05-01T04:39:15.764Z,76.19
2019-05-01T04:42:09.222Z,76.54
2019-05-01T04:44:55.851Z,76.54
2019-05-01T04:47:49.713Z,76.63
2019-05-01T04:50:36.310Z,76.67
2019-05-01T04:53:23.824Z,76.61
2019-05-01T04:56:10.327Z,76.58
2019-05-01T04:58:57.246Z,76.52
2019-05-01T05:02:02.096Z,76.36
2019-05-01T05:04:49.694Z,76.29
2019-05-01T05:07:37.303Z,76.04
2019-05-01T05:10:23.880Z,75.94
2019-05-01T05:13:19.230Z,75.83
2019-05-01T05:16:11.822Z,75.80
2019-05-01T05:18:59.045Z,75.65
2019-05-01T05:21:46.082Z,75.50
2019-05-01T05:24:33.015Z,73.01
2019-05-01T05:27:19.545Z,74.39
2019-05-01T05:30:06.340Z,72.02
2019-05-01T05:32:53.138Z,73.30
2019-05-01T05:35:40.103Z,73.90
2019-05-01T05:38:33.050Z,73.93
2019-05-01T05:41:20.039Z,73.88
2019-05-01T05:44:06.813Z,73.63
2019-05-01T05:46:53.701Z,73.63
2019-05-01T05:49:40.662Z,73.38
2019-05-01T05:52:32.688Z,73.34
2019-05-01T05:55:22.433Z,73.24
2019-05-01T05:58:09.342Z,73.18
2019-05-01T06:01:13.062Z,73.01
2019-05-01T06:04:03.638Z,72.97
2019-05-01T06:06:56.778Z,72.67
2019-05-01T06:09:44.775Z,72.33
2019-05-01T06:12:37.254Z,72.34
2019-05-01T06:15:25.836Z,72.31
2019-05-01T06:18:12.907Z,72.24
2019-05-01T06:21:02.211Z,68.72
2019-05-01T06:23:52.704Z,70.66
2019-05-01T06:26:39.147Z,71.32
2019-05-01T06:29:22.873Z,71.70
2019-05-01T06:32:09.518Z,71.95
2019-05-01T06:34:58.525Z,72.08
2019-05-01T06:38:00.863Z,72.14
2019-05-01T06:40:46.222Z,72.09
2019-05-01T06:43:43.668Z,72.02
2019-05-01T06:46:32.190Z,71.96
2019-05-01T06:49:33.911Z,71.76
2019-05-01T06:52:20.590Z,71.64
2019-05-01T06:55:07.778Z,71.34
2019-05-01T06:58:01.544Z,70.71
2019-05-01T07:00:48.276Z,70.39
2019-05-01T07:03:35.037Z,70.49
2019-05-01T07:06:35.899Z,69.96
2019-05-01T07:09:28.202Z,69.70
2019-05-01T07:12:09.123Z,69.59
2019-05-01T07:14:55.736Z,69.00
2019-05-01T07:17:43.818Z,68.60
2019-05-01T07:20:39.740Z,68.74
2019-05-01T07:23:26.446Z,68.64
2019-05-01T07:26:13.697Z,68.62
2019-05-01T07:29:09.966Z,68.42
2019-05-01T07:31:55.474Z,68.32
2019-05-01T07:34:42.815Z,67.85
2019-05-01T07:37:29.661Z,67.70
2019-05-01T07:40:16.242Z,67.99
2019-05-01T07:43:11.577Z,67.89
2019-05-01T07:46:02.363Z,62.65
2019-05-01T07:48:48.064Z,61.06
2019-05-01T07:51:37.679Z,64.21
2019-05-01T07:54:21.541Z,60.22
2019-05-01T07:57:08.359Z,63.96
2019-05-01T07:59:58.140Z,65.30
2019-05-01T08:02:44.447Z,65.27
2019-05-01T08:05:30.852Z,66.02
2019-05-01T08:08:19.691Z,66.23
2019-05-01T08:11:10.141Z,66.15
2019-05-01T08:13:53.738Z,66.15
2019-05-01T08:16:42.563Z,65.87
2019-05-01T08:19:34.788Z,65.64
2019-05-01T08:22:17.326Z,65.88
2019-05-01T08:25:04.100Z,65.86
2019-05-01T08:27:56.488Z,66.01
2019-05-01T08:30:54.076Z,65.29
2019-05-01T08:33:49.829Z,64.96
2019-05-01T08:36:33.697Z,59.82
2019-05-01T08:39:20.677Z,57.43
2019-05-01T08:42:22.074Z,60.27
2019-05-01T08:45:08.621Z,61.32
2019-05-01T08:48:01.509Z,61.60
2019-05-01T08:50:47.971Z,61.87
2019-05-01T08:53:35.290Z,62.53
2019-05-01T08:56:23.481Z,61.19
2019-05-01T08:59:09.522Z,60.52
2019-05-01T09:02:10.438Z,60.22
2019-05-01T09:05:02.385Z,60.15
2019-05-01T09:10:54.533Z,58.48
2019-05-01T09:13:36.825Z,57.01
2019-05-01T09:16:28.298Z,57.04
2019-05-01T09:19:11.195Z,57.31
2019-05-01T09:21:58.053Z,50.71
2019-05-01T09:24:52.048Z,54.75
2019-05-01T09:27:42.004Z,55.83
2019-05-01T09:30:34.413Z,56.54
2019-05-01T09:33:21.076Z,50.83
2019-05-01T09:36:07.893Z,54.42
2019-05-01T09:38:54.577Z,55.09
2019-05-01T09:41:43.192Z,55.37
2019-05-01T09:44:29.131Z,55.93
2019-05-01T09:47:15.919Z,55.67
2019-05-01T09:50:02.543Z,56.10
2019-05-01T09:52:55.182Z,56.17
2019-05-01T09:55:50.196Z,48.80
2019-05-01T09:58:36.858Z,52.28
2019-05-01T10:01:31.561Z,52.16
2019-05-01T10:04:10.819Z,53.22
2019-05-01T10:06:57.233Z,53.20
2019-05-01T10:09:47.275Z,47.74
2019-05-01T10:12:30.701Z,51.42
2019-05-01T10:15:17.787Z,51.64
2019-05-01T10:18:04.847Z,52.21
2019-05-01T10:20:52.022Z,52.35
2019-05-01T10:23:47.064Z,52.74
2019-05-01T10:26:32.641Z,52.60
2019-05-01T10:32:46.383Z,50.94
2019-05-01T10:35:43.484Z,51.13
2019-05-01T10:38:29.596Z,50.79
2019-05-01T10:41:16.256Z,50.47
2019-05-01T10:44:02.931Z,50.59
2019-05-01T10:49:55.171Z,49.27
2019-05-01T10:52:42.292Z,49.64
2019-05-01T10:55:28.822Z,49.24
2019-05-01T10:58:17.961Z,49.04
2019-05-01T11:01:11.631Z,49.08
2019-05-01T11:03:58.218Z,48.92
2019-05-01T11:06:45.654Z,48.53
2019-05-01T11:09:35.864Z,49.07
2019-05-01T11:12:22.773Z,48.58
2019-05-01T11:15:09.527Z,48.25
2019-05-01T11:17:56.057Z,47.45
2019-05-01T11:20:42.963Z,46.73
2019-05-01T11:23:29.679Z,46.67
2019-05-01T11:26:16.475Z,46.34
2019-05-01T11:29:02.998Z,45.35
2019-05-01T11:31:55.828Z,45.68
2019-05-01T11:34:45.021Z,44.94
2019-05-01T11:37:31.712Z,43.66
2019-05-01T11:40:18.611Z,43.29
2019-05-01T11:43:05.093Z,42.75
2019-05-01T11:45:51.644Z,43.65
2019-05-01T11:48:38.629Z,43.03
2019-05-01T11:51:26.228Z,43.18
2019-05-01T11:54:13.042Z,42.82
2019-05-01T11:57:00.953Z,43.23
2019-05-01T11:59:47.889Z,36.61
2019-05-01T12:02:34.921Z,40.13
2019-05-01T12:05:21.608Z,40.14
2019-05-01T12:08:08.316Z,40.08
2019-05-01T12:10:55.149Z,39.93
2019-05-01T12:13:44.524Z,40.46
2019-05-01T12:16:49.033Z,40.93
2019-05-01T12:19:36.451Z,41.33
2019-05-01T12:22:23.677Z,41.66
2019-05-01T12:25:13.393Z,42.05
2019-05-01T12:28:01.594Z,37.84
2019-05-01T12:30:48.782Z,41.27
2019-05-01T12:33:36.250Z,42.00
2019-05-01T12:36:35.717Z,41.67
2019-05-01T12:39:18.570Z,37.55
2019-05-01T12:42:05.329Z,39.97
2019-05-01T12:44:52.014Z,40.58
2019-05-01T12:47:38.760Z,40.52
2019-05-01T12:50:26.089Z,40.08
2019-05-01T12:53:15.368Z,40.27
2019-05-01T12:56:05.016Z,40.10
2019-05-01T12:58:52.334Z,39.88
2019-05-01T13:01:38.845Z,39.72
2019-05-01T13:04:25.701Z,36.00
2019-05-01T13:07:12.367Z,34.52
2019-05-01T13:09:59.175Z,36.76
2019-05-01T13:12:45.674Z,36.97
2019-05-01T13:15:32.527Z,37.82
2019-05-01T13:18:19.597Z,33.00
2019-05-01T13:21:06.451Z,35.64
2019-05-01T13:23:56.079Z,35.99
2019-05-01T13:26:46.052Z,36.23
2019-05-01T13:29:33.324Z,32.25
2019-05-01T13:32:32.671Z,35.23
2019-05-01T13:35:19.763Z,36.67
2019-05-01T13:38:06.415Z,37.04
2019-05-01T13:40:53.298Z,37.16
2019-05-01T13:43:40.254Z,37.75
2019-05-01T13:46:28.246Z,37.91
2019-05-01T13:49:14.806Z,37.68
2019-05-01T13:52:01.665Z,37.21
2019-05-01T13:54:48.589Z,37.18
2019-05-01T13:57:36.819Z,37.30
2019-05-01T14:00:23.377Z,37.53
2019-05-01T14:03:10.075Z,37.13
2019-05-01T14:05:56.809Z,36.90
2019-05-01T14:08:43.822Z,37.52
2019-05-01T14:11:30.362Z,38.02
2019-05-01T14:14:17.336Z,38.35
2019-05-01T14:17:03.943Z,39.15
2019-05-01T14:19:59.975Z,38.68
2019-05-01T14:22:55.919Z,37.92
2019-05-01T14:26:01.452Z,37.16
2019-05-01T14:28:49.034Z,37.29
2019-05-01T14:31:36.098Z,37.27
2019-05-01T14:34:22.673Z,37.81
2019-05-01T14:37:09.484Z,38.10
2019-05-01T14:39:55.958Z,37.84
2019-05-01T14:42:42.868Z,38.19
2019-05-01T14:45:29.407Z,38.08
2019-05-01T14:48:16.005Z,37.49
2019-05-01T14:51:02.453Z,37.29
2019-05-01T14:53:49.405Z,36.59
2019-05-01T14:56:36.522Z,36.87
2019-05-01T14:59:23.125Z,37.06
2019-05-01T15:02:09.934Z,37.29
2019-05-01T15:04:56.552Z,37.31
2019-05-01T15:07:44.139Z,36.57
2019-05-01T15:10:30.271Z,31.60
2019-05-01T15:13:20.220Z,33.60
2019-05-01T15:16:24.916Z,33.73
2019-05-01T15:19:11.393Z,33.47
2019-05-01T15:22:02.631Z,33.30
2019-05-01T15:24:47.778Z,33.14
2019-05-01T15:27:34.767Z,33.98
2019-05-01T15:30:21.700Z,33.72
2019-05-01T15:33:08.634Z,34.42
2019-05-01T15:35:55.137Z,35.58
2019-05-01T15:38:41.578Z,36.45
2019-05-01T15:41:28.406Z,36.89
2019-05-01T15:44:18.795Z,33.81
2019-05-01T15:47:05.900Z,36.88
2019-05-01T15:49:52.500Z,37.69
2019-05-01T15:52:39.340Z,38.00
2019-05-01T15:55:26.173Z,38.44
2019-05-01T15:58:12.979Z,38.93
2019-05-01T16:01:00.168Z,39.23
2019-05-01T16:03:47.048Z,39.44
2019-05-01T16:06:33.898Z,39.64
2019-05-01T16:09:20.889Z,39.83
2019-05-01T16:12:16.791Z,36.76
2019-05-01T16:15:03.258Z,39.38
2019-05-01T16:17:49.804Z,39.86
2019-05-01T16:20:38.465Z,37.26
2019-05-01T16:23:25.751Z,39.22
2019-05-01T16:26:12.535Z,39.39
2019-05-01T16:29:00.497Z,38.84
2019-05-01T16:31:46.930Z,38.49
2019-05-01T16:34:33.604Z,39.02
2019-05-01T16:37:21.556Z,39.20
2019-05-01T16:40:14.869Z,39.77
2019-05-01T16:43:01.928Z,40.14
2019-05-01T16:45:48.433Z,40.52
2019-05-01T16:48:35.558Z,40.71
2019-05-01T16:51:22.476Z,40.93
2019-05-01T16:54:09.046Z,38.39
2019-05-01T16:56:57.449Z,37.63
2019-05-01T16:59:44.697Z,39.72
2019-05-01T17:02:31.357Z,39.91
2019-05-01T17:05:36.255Z,40.08
2019-05-01T17:08:36.051Z,40.09
2019-05-01T17:11:16.122Z,36.44
2019-05-01T17:14:02.709Z,38.32
2019-05-01T17:16:49.715Z,38.61
2019-05-01T17:19:39.532Z,38.39
2019-05-01T17:22:26.713Z,38.36
2019-05-01T17:25:13.540Z,38.05
2019-05-01T17:28:02.790Z,37.84
2019-05-01T17:30:46.833Z,37.84
2019-05-01T17:33:33.539Z,38.50
2019-05-01T17:36:20.778Z,35.93
2019-05-01T17:39:07.263Z,39.72
2019-05-01T17:41:57.543Z,40.93
2019-05-01T17:44:41.575Z,41.86
2019-05-01T17:47:28.075Z,42.68
2019-05-01T17:50:16.363Z,43.24
2019-05-01T17:53:01.934Z,43.88
2019-05-01T17:55:49.559Z,44.37
2019-05-01T17:58:36.676Z,42.91
2019-05-01T18:01:27.959Z,44.84
2019-05-01T18:04:19.442Z,45.38
2019-05-01T18:07:06.030Z,46.00
2019-05-01T18:09:55.716Z,46.72
2019-05-01T18:12:39.867Z,47.12
2019-05-01T18:15:26.793Z,47.67
2019-05-01T18:18:15.106Z,48.01
2019-05-01T18:21:00.917Z,48.66
2019-05-01T18:24:05.418Z,49.05
2019-05-01T18:27:10.381Z,49.74
2019-05-01T18:29:57.438Z,50.15
2019-05-01T18:32:47.503Z,50.42
2019-05-01T18:35:31.777Z,50.77
2019-05-01T18:38:22.964Z,51.14
2019-05-01T18:41:27.782Z,51.94
2019-05-01T18:44:14.622Z,52.08
2019-05-01T18:47:01.051Z,52.46
2019-05-01T18:49:48.014Z,52.71
2019-05-01T18:52:34.689Z,53.31
2019-05-01T18:55:25.831Z,53.32
2019-05-01T18:58:22.533Z,53.90
2019-05-01T19:01:10.816Z,53.85
2019-05-01T19:03:56.101Z,54.16
2019-05-01T19:06:45.050Z,54.49
2019-05-01T19:09:30.865Z,54.57
2019-05-01T19:15:25.472Z,54.84
2019-05-01T19:18:10.325Z,56.72
2019-05-01T19:21:00.104Z,56.83
2019-05-01T19:27:06.749Z,57.40
2019-05-01T19:29:53.359Z,58.10
2019-05-01T19:32:39.970Z,58.52
2019-05-01T19:35:28.989Z,58.90
2019-05-01T19:38:13.537Z,59.74
2019-05-01T19:41:03.577Z,59.99
2019-05-01T19:43:48.230Z,60.45
2019-05-01T19:46:34.674Z,60.74
2019-05-01T19:49:24.723Z,61.03
2019-05-01T19:52:07.959Z,61.19
2019-05-01T19:54:54.749Z,61.43
2019-05-01T19:57:41.668Z,60.83
2019-05-01T20:00:50.289Z,62.20
2019-05-01T20:03:38.564Z,63.12
2019-05-01T20:06:24.504Z,63.47
2019-05-01T20:09:11.014Z,63.34
2019-05-01T20:11:58.728Z,63.44
2019-05-01T20:14:45.425Z,63.62
2019-05-01T20:17:32.629Z,63.91
2019-05-01T20:20:20.077Z,64.00
2019-05-01T20:23:06.801Z,64.41
2019-05-01T20:25:55.913Z,63.21
2019-05-01T20:28:40.247Z,65.04
2019-05-01T20:31:30.698Z,63.85
2019-05-01T20:34:17.201Z,65.76
2019-05-01T20:37:02.032Z,66.22
2019-05-01T20:39:48.731Z,66.31
2019-05-01T20:42:35.538Z,66.20
2019-05-01T20:45:22.195Z,66.30
2019-05-01T20:48:10.178Z,66.68
2019-05-01T20:50:58.039Z,65.61
2019-05-01T20:53:47.429Z,67.12
2019-05-01T20:56:37.685Z,67.12
2019-05-01T20:59:24.421Z,67.44
2019-05-01T21:02:10.953Z,67.71
2019-05-01T21:05:06.707Z,67.95
2019-05-01T21:08:08.272Z,67.74
2019-05-01T21:11:01.225Z,67.67
2019-05-01T21:13:56.698Z,67.79
2019-05-01T21:16:39.664Z,67.50
2019-05-01T21:19:25.726Z,67.97
2019-05-01T21:22:11.714Z,68.14
2019-05-01T21:25:05.864Z,69.09
2019-05-01T21:27:54.165Z,69.77
2019-05-01T21:30:45.759Z,69.42
2019-05-01T21:33:27.659Z,69.59
2019-05-01T21:36:14.892Z,69.77
2019-05-01T21:39:01.449Z,69.69
2019-05-01T21:41:55.264Z,69.45
2019-05-01T21:44:43.632Z,69.73
2019-05-01T21:47:29.492Z,69.39
2019-05-01T21:50:22.828Z,68.65
2019-05-01T21:53:06.877Z,70.07
2019-05-01T21:56:06.271Z,69.91
2019-05-01T21:58:52.177Z,70.02
2019-05-01T22:01:39.015Z,69.20
2019-05-01T22:04:28.119Z,70.52
2019-05-01T22:07:13.500Z,70.81
2019-05-01T22:10:00.116Z,70.67
2019-05-01T22:12:48.995Z,70.25
2019-05-01T22:15:41.998Z,68.82
2019-05-01T22:18:28.103Z,70.42
2019-05-01T22:21:17.812Z,71.15
2019-05-01T22:27:31.834Z,71.27
2019-05-01T22:30:30.093Z,71.17
2019-05-01T22:33:16.980Z,71.67
2019-05-01T22:36:03.819Z,71.73
2019-05-01T22:38:51.021Z,70.92
2019-05-01T22:41:51.561Z,71.71
2019-05-01T22:44:45.374Z,71.94
2019-05-01T22:47:32.386Z,73.72
2019-05-01T22:50:19.446Z,73.30
2019-05-01T22:53:07.946Z,73.02
2019-05-01T22:55:57.231Z,72.77
2019-05-01T22:58:40.178Z,72.78
2019-05-01T23:01:26.682Z,74.19
2019-05-01T23:04:17.224Z,72.42
2019-05-01T23:07:00.017Z,73.57
2019-05-01T23:09:46.561Z,72.56
2019-05-01T23:13:51.298Z,72.79
2019-05-01T23:16:38.606Z,73.36
2019-05-01T23:22:31.885Z,75.78
2019-05-01T23:25:18.638Z,76.72
2019-05-01T23:28:06.112Z,74.93
2019-05-01T23:30:52.569Z,76.26
2019-05-01T23:33:40.061Z,76.78
2019-05-01T23:36:27.623Z,76.57
2019-05-01T23:39:14.983Z,74.23
2019-05-01T23:42:09.912Z,73.29
2019-05-01T23:44:57.607Z,74.54
2019-05-01T23:47:44.437Z,74.76
2019-05-01T23:50:31.937Z,74.15
2019-05-01T23:53:19.859Z,75.72
2019-05-01T23:56:07.210Z,76.05
2019-05-01T23:58:55.107Z,74.66
